This is the latest recevied weather packets stored in our database for station/object N4TLC. If no packets are shown the sender has not sent any weather packets the latest 1 day(s).
| Time | Temp. | Humidity | Pressure | Rain* | Wind** | Luminosity | Snow |
|---|---|---|---|---|---|---|---|
| 1778023566 | 25.56° C | 34% | 1015.2 hPa | 0 mm | 1.34 m/s, 173° | 40 W/m² | - |
| 1778023264 | 25.56° C | 34% | 1015.1 hPa | 0 mm | 0.45 m/s, 133° | 53 W/m² | - |
| 1778022960 | 25.56° C | 35% | 1015 hPa | 0 mm | 0.45 m/s, 203° | 60 W/m² | - |
| 1778022659 | 25.56° C | 34% | 1015 hPa | 0 mm | 0.89 m/s, 142° | 62 W/m² | - |
| 1778022356 | 25.56° C | 33% | 1014.9 hPa | 0 mm | 0.89 m/s, 223° | 92 W/m² | - |
| 1778022052 | 26.11° C | 33% | 1015.1 hPa | 0 mm | 1.79 m/s, 207° | 107 W/m² | - |
| 1778021749 | 26.11° C | 32% | 1015 hPa | 0 mm | 1.34 m/s, 192° | 126 W/m² | - |
| 1778021445 | 26.11° C | 32% | 1015.2 hPa | 0 mm | 1.34 m/s, 195° | 140 W/m² | - |
| 1778021142 | 26.11° C | 33% | 1015.1 hPa | 0 mm | 1.34 m/s, 170° | 169 W/m² | - |
| 1778020840 | 26.67° C | 31% | 1015.1 hPa | 0 mm | 2.68 m/s, 201° | 171 W/m² | - |
| 1778020537 | 26.11° C | 32% | 1014.9 hPa | 0 mm | 0.89 m/s, 212° | 211 W/m² | - |
| 1778020233 | 26.11° C | 32% | 1015.1 hPa | 0 mm | 1.34 m/s, 229° | 242 W/m² | - |
| 1778019929 | 26.11° C | 32% | 1015 hPa | 0 mm | 1.79 m/s, 190° | 209 W/m² | - |
| 1778019625 | 26.11° C | 33% | 1015.1 hPa | 0 mm | 0.89 m/s, 205° | 250 W/m² | - |
| 1778019323 | 26.11° C | 33% | 1015.1 hPa | 0 mm | 2.68 m/s, 199° | 238 W/m² | - |
| 1778019019 | 26.11° C | 33% | 1015.3 hPa | 0 mm | 2.24 m/s, 158° | 284 W/m² | - |
| 1778018716 | 26.11° C | 34% | 1015.4 hPa | 0 mm | 1.79 m/s, 168° | 337 W/m² | - |
| 1778018414 | 26.11° C | 33% | 1015.4 hPa | 0 mm | 0.89 m/s, 171° | 351 W/m² | - |
| 1778018112 | 26.67° C | 33% | 1015.4 hPa | 0 mm | 0.89 m/s, 180° | 141 W/m² | - |
| 1778017810 | 26.67° C | 32% | 1015.3 hPa | 0 mm | 0.89 m/s, 144° | 410 W/m² | - |
| 1778017508 | 27.22° C | 31% | 1015.3 hPa | 0 mm | 1.79 m/s, 218° | 352 W/m² | - |
| 1778017204 | 26.67° C | 31% | 1015.4 hPa | 0 mm | 0.89 m/s, 185° | 429 W/m² | - |
| 1778016902 | 27.22° C | 31% | 1015.2 hPa | 0 mm | 1.34 m/s, 239° | 459 W/m² | - |
| 1778016598 | 27.22° C | 31% | 1015.3 hPa | 0 mm | 2.68 m/s, 243° | 476 W/m² | - |
| 1778016295 | 27.22° C | 30% | 1015.3 hPa | 0 mm | 2.24 m/s, 201° | 505 W/m² | - |
* Rain latest hour (hover to see other rain measurements)
** Current wind speed in m/s (hover to see current wind gust speed)